Time,TemperatureF,DewpointF,PressureIn,WindDirection,WindDirectionDegrees,WindSpeedMPH,WindSpeedGustMPH,Humidity,HourlyPrecipIn,Conditions,Clouds,dailyrainin,SoftwareType,DateUTC
2013-04-23 00:00:00,67.9,62.2,29.88,South,178,12.7,12.7,82,0.00,CLR,,0.00,WeatherDisplay:10.37,2013-04-23 05:00:00,
2013-04-23 00:05:00,67.8,62.4,29.88,South,182,9.2,9.2,83,0.00,CLR,,0.00,WeatherDisplay:10.37,2013-04-23 05:05:00,
2013-04-23 00:10:00,67.6,62.3,29.87,SSW,192,8.1,8.1,83,0.00,CLR,,0.00,WeatherDisplay:10.37,2013-04-23 05:10:00,
2013-04-23 00:15:00,67.4,62.4,29.88,SSE,168,8.1,8.1,84,0.00,CLR,,0.00,WeatherDisplay:10.37,2013-04-23 05:15:00,
2013-04-23 00:20:00,67.2,62.2,29.87,South,180,6.9,6.9,84,0.00,CLR,,0.00,WeatherDisplay:10.37,2013-04-23 05:20:00,
2013-04-23 00:25:00,67.0,62.0,29.88,SE,132,6.9,6.9,84,0.00,CLR,,0.00,WeatherDisplay:10.37,2013-04-23 05:25:00,
2013-04-23 00:30:00,66.9,62.2,29.88,SSE,157,3.5,4.2,85,0.00,CLR,,0.00,WeatherDisplay:10.37,2013-04-23 05:30:00,
2013-04-23 00:35:00,66.8,62.1,29.88,SSE,151,7.0,7.0,85,0.00,CLR,,0.00,WeatherDisplay:10.37,2013-04-23 05:35:00,
2013-04-23 00:40:00,66.6,61.9,29.88,SE,138,12.0,12.0,85,0.00,CLR,,0.00,WeatherDisplay:10.37,2013-04-23 05:40:00,
2013-04-23 00:45:00,66.6,61.9,29.88,SSE,147,11.5,11.5,85,0.00,CLR,,0.00,WeatherDisplay:10.37,2013-04-23 05:45:00,
2013-04-23 00:50:00,66.5,62.2,29.88,SSW,196,11.5,11.5,86,0.00,CLR,,0.00,WeatherDisplay:10.37,2013-04-23 05:50:00,
2013-04-23 00:55:00,66.4,62.1,29.87,South,174,17.3,17.3,86,0.00,CLR,,0.00,WeatherDisplay:10.37,2013-04-23 05:55:00,
2013-04-23 01:00:00,66.4,62.4,29.87,South,181,11.5,11.5,87,0.00,CLR,,0.00,WeatherDisplay:10.37,2013-04-23 06:00:00,
2013-04-23 01:05:00,66.4,62.4,29.87,South,186,17.3,17.3,87,0.00,CLR,,0.00,WeatherDisplay:10.37,2013-04-23 06:05:00,
2013-04-23 01:10:00,66.3,62.3,29.87,SSE,161,9.2,9.2,87,0.00,CLR,,0.00,WeatherDisplay:10.37,2013-04-23 06:10:00,
2013-04-23 01:15:00,66.2,62.2,29.87,ESE,117,6.9,6.9,87,0.00,CLR,,0.00,WeatherDisplay:10.37,2013-04-23 06:15:00,
2013-04-23 01:20:00,66.1,62.1,29.87,South,179,7.0,7.0,87,0.00,CLR,,0.00,WeatherDisplay:10.37,2013-04-23 06:20:00,
2013-04-23 01:25:00,66.1,62.4,29.87,South,172,13.8,13.8,88,0.00,CLR,,0.00,WeatherDisplay:10.37,2013-04-23 06:25:00,
2013-04-23 01:30:00,66.1,62.4,29.87,SSE,161,12.7,12.7,88,0.00,CLR,,0.00,WeatherDisplay:10.37,2013-04-23 06:30:00,
2013-04-23 01:35:00,66.2,62.5,29.87,South,187,13.8,13.8,88,0.00,CLR,,0.00,WeatherDisplay:10.37,2013-04-23 06:35:00,
2013-04-23 01:40:00,66.2,62.5,29.87,SSE,155,6.9,7.0,88,0.00,CLR,,0.00,WeatherDisplay:10.37,2013-04-23 06:40:00,
2013-04-23 01:45:00,66.2,62.5,29.87,South,173,6.9,6.9,88,0.00,CLR,,0.00,WeatherDisplay:10.37,2013-04-23 06:45:00,
2013-04-23 01:50:00,66.3,62.6,29.87,SSE,152,11.5,11.5,88,0.00,CLR,,0.00,WeatherDisplay:10.37,2013-04-23 06:50:00,
2013-04-23 01:55:00,66.3,62.6,29.87,SSE,159,8.1,8.1,88,0.00,CLR,,0.00,WeatherDisplay:10.37,2013-04-23 06:55:00,
2013-04-23 02:00:00,66.3,62.6,29.86,South,191,6.9,6.9,88,0.00,CLR,,0.00,WeatherDisplay:10.37,2013-04-23 07:00:00,
2013-04-23 02:05:00,66.3,62.6,29.86,SSE,159,9.2,9.2,88,0.00,CLR,,0.00,WeatherDisplay:10.37,2013-04-23 07:05:00,
2013-04-23 02:10:00,66.3,62.6,29.85,SSE,167,12.7,12.7,88,0.00,CLR,,0.00,WeatherDisplay:10.37,2013-04-23 07:10:00,
2013-04-23 02:15:00,66.3,62.6,29.85,SE,134,8.1,8.1,88,0.00,CLR,,0.00,WeatherDisplay:10.37,2013-04-23 07:15:00,
2013-04-23 02:20:00,66.3,62.6,29.85,SE,146,12.7,12.7,88,0.00,CLR,,0.00,WeatherDisplay:10.37,2013-04-23 07:20:00,
2013-04-23 02:25:00,66.3,62.6,29.85,SSW,201,15.0,15.0,88,0.00,CLR,,0.00,WeatherDisplay:10.37,2013-04-23 07:25:00,
2013-04-23 02:30:00,66.3,63.0,29.84,South,184,12.7,12.7,89,0.00,CLR,,0.00,WeatherDisplay:10.37,2013-04-23 07:30:00,
2013-04-23 02:35:00,66.2,62.9,29.84,SE,134,11.5,11.5,89,0.00,CLR,,0.00,WeatherDisplay:10.37,2013-04-23 07:35:00,
2013-04-23 02:40:00,66.2,62.9,29.84,SSE,153,12.7,12.7,89,0.00,CLR,,0.00,WeatherDisplay:10.37,2013-04-23 07:40:00,
2013-04-23 02:45:00,66.2,62.9,29.84,SSW,207,10.4,10.4,89,0.00,CLR,,0.00,WeatherDisplay:10.37,2013-04-23 07:45:00,
2013-04-23 02:50:00,66.2,62.9,29.84,SSE,164,11.5,11.5,89,0.00,CLR,,0.00,WeatherDisplay:10.37,2013-04-23 07:50:00,
2013-04-23 02:55:00,66.3,63.0,29.84,South,181,11.5,11.5,89,0.00,CLR,,0.00,WeatherDisplay:10.37,2013-04-23 07:55:00,
2013-04-23 03:00:00,66.3,63.0,29.84,ESE,117,10.4,10.4,89,0.00,CLR,,0.00,WeatherDisplay:10.37,2013-04-23 08:00:00,
2013-04-23 03:05:00,66.3,63.0,29.84,South,170,10.4,10.4,89,0.00,CLR,,0.00,WeatherDisplay:10.37,2013-04-23 08:05:00,
2013-04-23 03:10:00,66.3,63.0,29.84,South,173,11.5,11.5,89,0.00,CLR,,0.00,WeatherDisplay:10.37,2013-04-23 08:10:00,
2013-04-23 03:15:00,66.3,63.0,29.84,South,190,9.2,9.2,89,0.00,CLR,,0.00,WeatherDisplay:10.37,2013-04-23 08:15:00,
2013-04-23 03:20:00,66.4,63.1,29.84,South,181,8.1,8.1,89,0.00,CLR,,0.00,WeatherDisplay:10.37,2013-04-23 08:20:00,
2013-04-23 03:25:00,66.4,63.4,29.83,South,190,11.5,11.5,90,0.00,CLR,,0.00,WeatherDisplay:10.37,2013-04-23 08:25:00,
2013-04-23 03:30:00,66.4,63.1,29.83,South,174,12.7,12.7,89,0.00,CLR,,0.00,WeatherDisplay:10.37,2013-04-23 08:30:00,
2013-04-23 03:35:00,66.5,63.2,29.83,SSE,165,6.9,6.9,89,0.00,CLR,,0.00,WeatherDisplay:10.37,2013-04-23 08:35:00,
2013-04-23 03:40:00,66.6,63.3,29.83,South,175,5.8,5.8,89,0.00,CLR,,0.00,WeatherDisplay:10.37,2013-04-23 08:40:00,
2013-04-23 03:45:00,66.6,63.3,29.83,South,184,8.1,8.1,89,0.00,CLR,,0.00,WeatherDisplay:10.37,2013-04-23 08:45:00,
2013-04-23 03:50:00,66.6,63.3,29.83,SSW,196,8.1,8.1,89,0.00,CLR,,0.00,WeatherDisplay:10.37,2013-04-23 08:50:00,
2013-04-23 03:55:00,66.6,63.3,29.83,SW,221,8.1,8.1,89,0.00,CLR,,0.00,WeatherDisplay:10.37,2013-04-23 08:55:00,
2013-04-23 04:00:00,66.7,63.4,29.83,SSW,193,11.5,11.5,89,0.00,CLR,,0.00,WeatherDisplay:10.37,2013-04-23 09:00:00,
2013-04-23 04:05:00,66.7,63.4,29.83,SSE,167,8.1,8.1,89,0.00,CLR,,0.00,WeatherDisplay:10.37,2013-04-23 09:05:00,
2013-04-23 04:10:00,66.7,63.4,29.82,South,186,4.6,4.6,89,0.00,CLR,,0.00,WeatherDisplay:10.37,2013-04-23 09:10:00,
2013-04-23 04:16:00,66.7,63.4,29.82,South,170,5.8,5.8,89,0.00,CLR,,0.00,WeatherDisplay:10.37,2013-04-23 09:16:00,
2013-04-23 04:21:00,66.8,63.5,29.82,SW,219,5.8,5.8,89,0.00,CLR,,0.00,WeatherDisplay:10.37,2013-04-23 09:21:00,
2013-04-23 04:26:00,66.8,63.5,29.82,SSE,150,8.1,8.1,89,0.00,CLR,,0.00,WeatherDisplay:10.37,2013-04-23 09:26:00,
2013-04-23 04:31:00,66.8,63.5,29.82,SSW,192,11.5,11.5,89,0.00,CLR,,0.00,WeatherDisplay:10.37,2013-04-23 09:31:00,
2013-04-23 04:36:00,66.9,63.6,29.82,South,188,9.2,9.2,89,0.00,CLR,,0.00,WeatherDisplay:10.37,2013-04-23 09:36:00,
2013-04-23 04:41:00,67.0,63.3,29.82,SSE,155,11.5,11.5,88,0.00,CLR,,0.00,WeatherDisplay:10.37,2013-04-23 09:41:00,
2013-04-23 04:46:00,67.0,63.3,29.82,SSW,208,11.5,11.5,88,0.00,CLR,,0.00,WeatherDisplay:10.37,2013-04-23 09:46:00,
2013-04-23 04:51:00,67.1,63.4,29.82,South,187,11.5,11.5,88,0.00,CLR,,0.00,WeatherDisplay:10.37,2013-04-23 09:51:00,
2013-04-23 04:56:00,67.1,63.4,29.82,SSE,159,10.4,10.4,88,0.00,CLR,,0.00,WeatherDisplay:10.37,2013-04-23 09:56:00,
2013-04-23 05:01:00,67.2,63.5,29.82,SSE,165,11.5,11.5,88,0.00,CLR,,0.00,WeatherDisplay:10.37,2013-04-23 10:01:00,
2013-04-23 05:06:00,67.2,63.5,29.82,SSE,163,9.2,9.2,88,0.00,CLR,,0.00,WeatherDisplay:10.37,2013-04-23 10:06:00,
2013-04-23 05:11:00,67.2,63.5,29.82,SSW,205,13.8,13.8,88,0.00,CLR,,0.00,WeatherDisplay:10.37,2013-04-23 10:11:00,
2013-04-23 05:16:00,67.2,63.5,29.82,SSE,159,5.8,5.8,88,0.00,CLR,,0.00,WeatherDisplay:10.37,2013-04-23 10:16:00,
2013-04-23 05:21:00,67.3,63.6,29.82,SSW,195,8.1,8.1,88,0.00,CLR,,0.00,WeatherDisplay:10.37,2013-04-23 10:21:00,
2013-04-23 05:26:00,67.4,63.7,29.82,South,178,17.3,17.3,88,0.00,CLR,,0.00,WeatherDisplay:10.37,2013-04-23 10:26:00,
2013-04-23 05:31:00,67.4,63.7,29.82,SSE,165,9.2,9.2,88,0.00,CLR,,0.00,WeatherDisplay:10.37,2013-04-23 10:31:00,
2013-04-23 05:36:00,67.4,63.7,29.82,South,181,11.5,11.5,88,0.00,CLR,,0.00,WeatherDisplay:10.37,2013-04-23 10:36:00,
2013-04-23 05:41:00,67.4,63.7,29.82,South,184,6.9,7.5,88,0.00,CLR,,0.00,WeatherDisplay:10.37,2013-04-23 10:41:00,
2013-04-23 05:46:00,67.5,63.5,29.82,South,184,17.3,17.3,87,0.00,CLR,,0.00,WeatherDisplay:10.37,2013-04-23 10:46:00,
2013-04-23 05:51:00,67.6,63.3,29.82,South,180,12.7,12.7,86,0.00,CLR,,0.00,WeatherDisplay:10.37,2013-04-23 10:51:00,
2013-04-23 05:56:00,67.7,63.4,29.82,SSW,202,9.2,9.2,86,0.00,CLR,,0.00,WeatherDisplay:10.37,2013-04-23 10:56:00,
2013-04-23 06:01:00,67.7,63.4,29.82,SE,141,13.8,13.8,86,0.00,CLR,,0.00,WeatherDisplay:10.37,2013-04-23 11:01:00,
2013-04-23 06:06:00,67.7,63.4,29.82,South,177,11.5,11.5,86,0.00,CLR,,0.00,WeatherDisplay:10.37,2013-04-23 11:06:00,
2013-04-23 06:11:00,67.7,63.4,29.82,SSE,161,7.0,7.0,86,0.00,CLR,,0.00,WeatherDisplay:10.37,2013-04-23 11:11:00,
2013-04-23 06:16:00,67.7,63.4,29.82,South,188,15.0,15.0,86,0.00,CLR,,0.00,WeatherDisplay:10.37,2013-04-23 11:16:00,
2013-04-23 06:21:00,67.8,63.1,29.82,SSW,205,16.1,16.1,85,0.00,CLR,,0.00,WeatherDisplay:10.37,2013-04-23 11:21:00,
2013-04-23 06:26:00,67.8,62.8,29.82,SSW,199,11.5,11.5,84,0.00,CLR,,0.00,WeatherDisplay:10.37,2013-04-23 11:26:00,
2013-04-23 06:31:00,67.9,62.9,29.82,SSW,195,12.7,12.7,84,0.00,CLR,,0.00,WeatherDisplay:10.37,2013-04-23 11:31:00,
2013-04-23 06:36:00,67.9,62.5,29.82,South,171,17.3,17.3,83,0.00,CLR,,0.00,WeatherDisplay:10.37,2013-04-23 11:36:00,
2013-04-23 06:41:00,68.0,63.0,29.82,SW,233,10.4,10.4,84,0.00,CLR,,0.00,WeatherDisplay:10.37,2013-04-23 11:41:00,
2013-04-23 06:46:00,68.0,63.0,29.82,SE,131,11.5,11.5,84,0.00,CLR,,0.00,WeatherDisplay:10.37,2013-04-23 11:46:00,
2013-04-23 06:51:00,67.9,62.9,29.82,SSW,204,12.7,12.7,84,0.00,CLR,,0.00,WeatherDisplay:10.37,2013-04-23 11:51:00,
2013-04-23 06:56:00,67.9,62.9,29.81,South,188,10.4,10.4,84,0.00,CLR,,0.00,WeatherDisplay:10.37,2013-04-23 11:56:00,
2013-04-23 07:01:00,67.9,62.9,29.82,SSE,154,6.9,6.9,84,0.00,CLR,,0.00,WeatherDisplay:10.37,2013-04-23 12:01:00,
2013-04-23 07:06:00,67.9,62.9,29.82,South,175,8.0,8.0,84,0.00,CLR,,0.00,WeatherDisplay:10.37,2013-04-23 12:06:00,
2013-04-23 07:11:00,67.9,62.9,29.83,South,170,10.4,10.4,84,0.00,CLR,,0.00,WeatherDisplay:10.37,2013-04-23 12:11:00,
2013-04-23 07:16:00,68.0,63.0,29.83,SSE,168,10.4,10.4,84,0.00,CLR,,0.00,WeatherDisplay:10.37,2013-04-23 12:16:00,
2013-04-23 07:21:00,68.0,63.0,29.83,South,169,9.2,9.2,84,0.00,CLR,,0.00,WeatherDisplay:10.37,2013-04-23 12:21:00,
2013-04-23 07:26:00,68.1,63.1,29.83,South,182,9.2,9.2,84,0.00,CLR,,0.00,WeatherDisplay:10.37,2013-04-23 12:26:00,
2013-04-23 07:31:00,68.1,63.1,29.83,South,174,9.2,9.2,84,0.00,CLR,,0.00,WeatherDisplay:10.37,2013-04-23 12:31:00,
2013-04-23 07:36:00,68.1,63.1,29.83,South,174,12.7,12.7,84,0.00,CLR,,0.00,WeatherDisplay:10.37,2013-04-23 12:36:00,
2013-04-23 07:41:00,68.2,63.2,29.84,SE,146,8.1,8.1,84,0.00,CLR,,0.00,WeatherDisplay:10.37,2013-04-23 12:41:00,
2013-04-23 07:46:00,68.2,63.2,29.83,SE,142,10.4,10.4,84,0.00,CLR,,0.00,WeatherDisplay:10.37,2013-04-23 12:46:00,
2013-04-23 07:51:00,68.3,63.6,29.83,South,178,8.1,8.1,85,0.00,CLR,,0.00,WeatherDisplay:10.37,2013-04-23 12:51:00,
2013-04-23 07:56:00,68.3,63.3,29.83,South,175,12.7,12.7,84,0.00,CLR,,0.00,WeatherDisplay:10.37,2013-04-23 12:56:00,
2013-04-23 08:01:00,68.4,63.7,29.83,SSE,159,13.8,13.8,85,0.00,CLR,,0.00,WeatherDisplay:10.37,2013-04-23 13:01:00,
2013-04-23 08:06:00,68.4,63.7,29.84,South,178,12.7,12.7,85,0.00,CLR,,0.00,WeatherDisplay:10.37,2013-04-23 13:06:00,
2013-04-23 08:11:00,68.4,63.7,29.84,South,186,15.0,15.0,85,0.00,CLR,,0.00,WeatherDisplay:10.37,2013-04-23 13:11:00,
2013-04-23 08:26:00,68.5,64.0,29.84,SSW,200,6.0,16.0,85,0.00,,,0.00,weatherlink.com 1.10,2013-04-23 13:26:00,
2013-04-23 08:41:00,68.8,64.0,29.85,SSE,155,7.0,16.0,85,0.00,,,0.00,weatherlink.com 1.10,2013-04-23 13:41:00,
2013-04-23 08:56:00,69.2,65.0,29.85,SSE,168,6.0,13.0,85,0.00,,,0.00,weatherlink.com 1.10,2013-04-23 13:56:00,
2013-04-23 09:12:00,69.9,65.0,29.85,SE,135,4.0,13.0,83,0.00,,,0.00,weatherlink.com 1.10,2013-04-23 14:12:00,
2013-04-23 09:27:00,70.4,65.0,29.86,SE,132,6.0,13.0,82,0.00,,,0.00,weatherlink.com 1.10,2013-04-23 14:27:00,
2013-04-23 09:42:00,70.4,65.0,29.85,SSW,198,9.0,16.0,83,0.00,,,0.00,weatherlink.com 1.10,2013-04-23 14:42:00,
2013-04-23 09:57:00,71.7,65.0,29.85,South,179,9.0,12.0,80,0.00,,,0.00,weatherlink.com 1.10,2013-04-23 14:57:00,
2013-04-23 10:12:00,71.4,65.0,29.86,South,172,4.0,15.0,80,0.00,,,0.00,weatherlink.com 1.10,2013-04-23 15:12:00,
2013-04-23 10:27:00,71.5,65.0,29.88,SE,135,5.0,11.0,81,0.00,,,0.00,weatherlink.com 1.10,2013-04-23 15:27:00,
2013-04-23 10:37:00,71.3,65.2,29.89,SSE,148,17.3,17.3,81,0.00,CLR,,0.00,WeatherDisplay:10.37,2013-04-23 15:37:00,
2013-04-23 10:42:00,71.2,65.1,29.89,South,186,4.6,5.0,81,0.00,CLR,,0.00,WeatherDisplay:10.37,2013-04-23 15:42:00,
2013-04-23 10:47:00,71.2,65.4,29.89,SE,128,3.5,3.5,82,0.00,CLR,,0.00,WeatherDisplay:10.37,2013-04-23 15:47:00,
2013-04-23 10:52:00,71.3,65.5,29.89,ESE,114,3.5,3.5,82,0.00,CLR,,0.00,WeatherDisplay:10.37,2013-04-23 15:52:00,
2013-04-23 10:57:00,71.2,65.4,29.89,SE,132,5.8,5.8,82,0.00,CLR,,0.00,WeatherDisplay:10.37,2013-04-23 15:57:00,
2013-04-23 11:02:00,71.2,65.4,29.89,ESE,113,6.9,6.9,82,0.00,CLR,,0.00,WeatherDisplay:10.37,2013-04-23 16:02:00,
2013-04-23 11:07:00,71.1,65.3,29.89,ESE,115,5.8,5.8,82,0.00,CLR,,0.00,WeatherDisplay:10.37,2013-04-23 16:07:00,
2013-04-23 11:12:00,71.2,65.4,29.89,SE,126,3.5,3.5,82,0.00,CLR,,0.00,WeatherDisplay:10.37,2013-04-23 16:12:00,
2013-04-23 11:17:00,71.6,65.8,29.89,ESE,110,5.8,5.8,82,0.00,CLR,,0.00,WeatherDisplay:10.37,2013-04-23 16:17:00,
2013-04-23 11:22:00,71.8,65.7,29.89,ESE,121,4.6,4.6,81,0.00,CLR,,0.00,WeatherDisplay:10.37,2013-04-23 16:22:00,
2013-04-23 11:27:00,71.6,65.8,29.90,ESE,123,5.8,5.8,82,0.00,CLR,,0.00,WeatherDisplay:10.37,2013-04-23 16:27:00,
2013-04-23 11:32:00,71.4,65.6,29.90,East,101,9.2,9.2,82,0.00,CLR,,0.00,WeatherDisplay:10.37,2013-04-23 16:32:00,
2013-04-23 11:37:00,71.3,65.5,29.89,SE,129,4.6,4.6,82,0.00,CLR,,0.00,WeatherDisplay:10.37,2013-04-23 16:37:00,
2013-04-23 11:42:00,72.0,66.2,29.89,SE,140,8.1,8.1,82,0.00,CLR,,0.00,WeatherDisplay:10.37,2013-04-23 16:42:00,
2013-04-23 11:47:00,72.4,66.2,29.89,ESE,115,11.5,11.5,81,0.00,CLR,,0.00,WeatherDisplay:10.37,2013-04-23 16:47:00,
2013-04-23 11:52:00,72.2,66.0,29.89,East,96,10.4,10.4,81,0.00,CLR,,0.00,WeatherDisplay:10.37,2013-04-23 16:52:00,
2013-04-23 11:57:00,72.4,66.2,29.89,East,92,5.8,5.8,81,0.00,CLR,,0.00,WeatherDisplay:10.37,2013-04-23 16:57:00,
2013-04-23 12:02:00,72.6,66.1,29.89,ESE,102,9.2,9.2,80,0.00,CLR,,0.00,WeatherDisplay:10.37,2013-04-23 17:02:00,
2013-04-23 12:07:00,72.7,66.2,29.89,ESE,111,12.7,12.7,80,0.00,CLR,,0.00,WeatherDisplay:10.37,2013-04-23 17:07:00,
2013-04-23 12:12:00,73.1,66.2,29.89,SE,131,10.4,10.4,79,0.00,CLR,,0.00,WeatherDisplay:10.37,2013-04-23 17:12:00,
2013-04-23 12:17:00,73.1,66.2,29.89,ESE,122,6.9,6.9,79,0.00,CLR,,0.00,WeatherDisplay:10.37,2013-04-23 17:17:00,
2013-04-23 12:22:00,72.9,66.0,29.89,ESE,119,9.0,9.0,79,0.00,CLR,,0.00,WeatherDisplay:10.37,2013-04-23 17:22:00,
2013-04-23 12:27:00,72.7,66.2,29.89,SE,128,6.9,6.9,80,0.00,CLR,,0.00,WeatherDisplay:10.37,2013-04-23 17:27:00,
2013-04-23 12:32:00,72.5,66.0,29.88,SE,129,6.9,6.9,80,0.00,CLR,,0.00,WeatherDisplay:10.37,2013-04-23 17:32:00,
2013-04-23 12:37:00,72.9,66.4,29.88,ESE,111,5.8,5.8,80,0.00,CLR,,0.00,WeatherDisplay:10.37,2013-04-23 17:37:00,
2013-04-23 12:42:00,74.4,66.7,29.88,ESE,107,8.1,8.1,77,0.00,CLR,,0.00,WeatherDisplay:10.37,2013-04-23 17:42:00,
2013-04-23 12:47:00,74.5,66.8,29.88,SE,139,10.4,10.4,77,0.00,CLR,,0.00,WeatherDisplay:10.37,2013-04-23 17:47:00,
2013-04-23 12:52:00,74.2,66.1,29.88,SE,132,6.9,6.9,76,0.00,CLR,,0.00,WeatherDisplay:10.37,2013-04-23 17:52:00,
2013-04-23 12:57:00,74.0,66.3,29.88,East,94,6.9,6.9,77,0.00,CLR,,0.00,WeatherDisplay:10.37,2013-04-23 17:57:00,
2013-04-23 13:02:00,74.3,66.6,29.88,ESE,112,9.0,9.0,77,0.00,CLR,,0.00,WeatherDisplay:10.37,2013-04-23 18:02:00,
2013-04-23 13:07:00,74.0,66.0,29.88,East,90,4.6,4.6,76,0.00,CLR,,0.00,WeatherDisplay:10.37,2013-04-23 18:07:00,
2013-04-23 13:12:00,74.0,66.3,29.87,East,97,8.1,8.1,77,0.00,CLR,,0.00,WeatherDisplay:10.37,2013-04-23 18:12:00,
2013-04-23 13:17:00,73.8,66.5,29.87,ESE,117,10.4,10.4,78,0.00,CLR,,0.00,WeatherDisplay:10.37,2013-04-23 18:17:00,
2013-04-23 13:28:00,73.6,66.0,29.87,East,99,3.0,12.0,78,0.00,,,0.00,weatherlink.com 1.10,2013-04-23 18:28:00,
2013-04-23 13:43:00,74.1,66.0,29.87,East,101,3.0,12.0,77,0.00,,,0.00,weatherlink.com 1.10,2013-04-23 18:43:00,
2013-04-23 13:58:00,74.5,67.0,29.86,ESE,105,9.0,11.0,76,0.00,,,0.00,weatherlink.com 1.10,2013-04-23 18:58:00,
2013-04-23 14:13:00,75.4,67.0,29.86,SE,130,5.0,9.0,75,0.00,,,0.00,weatherlink.com 1.10,2013-04-23 19:13:00,
2013-04-23 14:28:00,76.3,67.0,29.85,SSE,152,8.0,11.0,72,0.00,,,0.00,weatherlink.com 1.10,2013-04-23 19:28:00,
2013-04-23 14:43:00,77.1,66.0,29.85,East,100,6.0,11.0,69,0.00,,,0.00,weatherlink.com 1.10,2013-04-23 19:43:00,
2013-04-23 14:58:00,76.2,66.0,29.84,East,80,1.0,9.0,71,0.00,,,0.00,weatherlink.com 1.10,2013-04-23 19:58:00,
2013-04-23 15:13:00,76.1,66.0,29.84,SE,145,3.0,9.0,72,0.00,,,0.00,weatherlink.com 1.10,2013-04-23 20:13:00,
2013-04-23 15:28:00,76.3,66.0,29.84,SE,126,6.0,9.0,71,0.00,,,0.00,weatherlink.com 1.10,2013-04-23 20:28:00,
2013-04-23 15:43:00,77.6,67.0,29.84,East,84,2.0,7.0,70,0.00,,,0.00,weatherlink.com 1.10,2013-04-23 20:43:00,
2013-04-23 15:58:00,77.4,66.0,29.83,ESE,113,1.0,9.0,68,0.00,,,0.00,weatherlink.com 1.10,2013-04-23 20:58:00,
2013-04-23 16:13:00,77.1,66.0,29.83,East,90,3.0,6.0,69,0.00,,,0.00,weatherlink.com 1.10,2013-04-23 21:13:00,
2013-04-23 16:28:00,77.2,67.0,29.82,East,97,6.0,8.0,70,0.00,,,0.00,weatherlink.com 1.10,2013-04-23 21:28:00,
2013-04-23 16:43:00,77.1,67.0,29.82,East,91,3.0,9.0,70,0.00,,,0.00,weatherlink.com 1.10,2013-04-23 21:43:00,
2013-04-23 16:58:00,77.1,66.0,29.81,East,99,3.0,7.0,69,0.00,,,0.00,weatherlink.com 1.10,2013-04-23 21:58:00,
2013-04-23 17:14:00,77.0,66.0,29.81,East,94,3.0,9.0,68,0.00,,,0.00,weatherlink.com 1.10,2013-04-23 22:14:00,
2013-04-23 17:29:00,76.4,66.0,29.81,NE,50,4.0,10.0,71,0.00,,,0.00,weatherlink.com 1.10,2013-04-23 22:29:00,
2013-04-23 17:44:00,76.3,67.0,29.81,ENE,65,5.0,9.0,72,0.00,,,0.00,weatherlink.com 1.10,2013-04-23 22:44:00,
2013-04-23 17:59:00,75.4,62.0,29.82,North,9,8.0,15.0,63,0.00,,,0.00,weatherlink.com 1.10,2013-04-23 22:59:00,
2013-04-23 18:14:00,71.1,57.0,29.83,NNW,344,9.0,14.0,61,0.00,,,0.00,weatherlink.com 1.10,2013-04-23 23:14:00,
2013-04-23 18:29:00,69.4,55.0,29.84,NNE,27,4.0,13.0,61,0.00,,,0.00,weatherlink.com 1.10,2013-04-23 23:29:00,
2013-04-23 18:44:00,67.8,53.0,29.84,NNE,22,7.0,15.0,60,0.00,,,0.00,weatherlink.com 1.10,2013-04-23 23:44:00,
2013-04-23 18:59:00,66.0,52.0,29.86,NW,315,10.0,18.0,60,0.00,,,0.00,weatherlink.com 1.10,2013-04-23 23:59:00,
2013-04-23 19:14:00,64.6,50.0,29.87,ENE,63,8.0,22.0,60,0.00,,,0.00,weatherlink.com 1.10,2013-04-24 00:14:00,
2013-04-23 19:29:00,62.9,49.0,29.87,North,11,12.0,21.0,61,0.00,,,0.00,weatherlink.com 1.10,2013-04-24 00:29:00,
2013-04-23 19:44:00,61.7,49.0,29.89,North,355,9.0,21.0,63,0.00,,,0.00,weatherlink.com 1.10,2013-04-24 00:44:00,
2013-04-23 19:59:00,60.8,48.0,29.89,NNW,339,10.0,20.0,63,0.00,,,0.00,weatherlink.com 1.10,2013-04-24 00:59:00,
2013-04-23 20:14:00,60.3,48.0,29.91,NE,38,13.0,18.0,64,0.00,,,0.00,weatherlink.com 1.10,2013-04-24 01:14:00,
2013-04-23 20:19:00,73.8,66.5,29.87,East,100,9.2,9.2,78,0.00,CLR,,0.00,WeatherDisplay:10.37,2013-04-24 01:19:00,
2013-04-23 20:24:00,60.1,48.3,29.91,North,355,11.5,11.5,65,0.00,CLR,,0.00,WeatherDisplay:10.37,2013-04-24 01:24:00,
2013-04-23 20:29:00,59.8,47.6,29.91,NE,36,13.8,13.8,64,0.00,CLR,,0.00,WeatherDisplay:10.37,2013-04-24 01:29:00,
2013-04-23 20:34:00,59.5,47.7,29.91,NNE,30,14.0,14.0,65,0.00,CLR,,0.00,WeatherDisplay:10.37,2013-04-24 01:34:00,
2013-04-23 20:39:00,59.2,47.4,29.91,North,9,16.1,16.1,65,0.00,CLR,,0.00,WeatherDisplay:10.37,2013-04-24 01:39:00,
2013-04-23 20:44:00,59.0,47.2,29.92,NNE,32,19.6,19.6,65,0.00,CLR,,0.00,WeatherDisplay:10.37,2013-04-24 01:44:00,
2013-04-23 20:49:00,58.7,47.4,29.92,North,5,15.0,15.0,66,0.00,CLR,,0.00,WeatherDisplay:10.37,2013-04-24 01:49:00,
2013-04-23 20:54:00,58.6,47.3,29.92,NNE,24,11.5,11.5,66,0.00,CLR,,0.00,WeatherDisplay:10.37,2013-04-24 01:54:00,
2013-04-23 20:59:00,58.4,47.1,29.92,NE,36,15.0,15.0,66,0.00,CLR,,0.00,WeatherDisplay:10.37,2013-04-24 01:59:00,
2013-04-23 21:04:00,58.2,46.9,29.92,NE,56,16.0,16.0,66,0.00,CLR,,0.00,WeatherDisplay:10.37,2013-04-24 02:04:00,
2013-04-23 21:09:00,58.0,46.7,29.94,NNW,348,12.7,12.7,66,0.00,CLR,,0.00,WeatherDisplay:10.37,2013-04-24 02:09:00,
2013-04-23 21:15:00,57.9,46.6,29.94,North,360,16.1,16.1,66,0.00,CLR,,0.00,WeatherDisplay:10.37,2013-04-24 02:15:00,
2013-04-23 21:20:00,57.8,46.9,29.95,North,9,8.1,8.1,67,0.00,CLR,,0.00,WeatherDisplay:10.37,2013-04-24 02:20:00,
2013-04-23 21:26:00,57.8,46.9,29.95,NE,35,11.5,11.5,67,0.00,CLR,,0.00,WeatherDisplay:10.37,2013-04-24 02:26:00,
2013-04-23 21:31:00,57.7,46.4,29.95,NNE,30,16.1,16.1,66,0.00,CLR,,0.00,WeatherDisplay:10.37,2013-04-24 02:31:00,
2013-04-23 21:36:00,57.5,46.6,29.95,NNE,13,13.8,13.8,67,0.00,CLR,,0.00,WeatherDisplay:10.37,2013-04-24 02:36:00,
2013-04-23 21:41:00,57.5,46.6,29.96,North,5,8.1,8.1,67,0.00,CLR,,0.00,WeatherDisplay:10.37,2013-04-24 02:41:00,
2013-04-23 21:47:00,57.4,46.5,29.96,NNE,24,12.7,12.7,67,0.00,CLR,,0.00,WeatherDisplay:10.37,2013-04-24 02:47:00,
2013-04-23 21:52:00,57.3,46.4,29.96,NNE,26,16.1,16.1,67,0.00,CLR,,0.00,WeatherDisplay:10.37,2013-04-24 02:52:00,
2013-04-23 21:57:00,57.1,46.6,29.97,North,350,11.5,11.5,68,0.00,CLR,,0.00,WeatherDisplay:10.37,2013-04-24 02:57:00,
2013-04-23 22:02:00,56.9,46.1,29.97,NNE,27,16.1,16.1,67,0.00,CLR,,0.00,WeatherDisplay:10.37,2013-04-24 03:02:00,
2013-04-23 22:07:00,56.7,46.3,29.98,NNE,22,14.0,14.0,68,0.00,CLR,,0.00,WeatherDisplay:10.37,2013-04-24 03:07:00,
2013-04-23 22:12:00,56.6,46.2,29.98,North,11,13.8,13.8,68,0.00,CLR,,0.00,WeatherDisplay:10.37,2013-04-24 03:12:00,
2013-04-23 22:17:00,56.5,46.1,29.98,NNE,26,9.2,9.2,68,0.00,CLR,,0.00,WeatherDisplay:10.37,2013-04-24 03:17:00,
2013-04-23 22:22:00,56.4,46.0,29.98,North,360,16.1,16.1,68,0.00,CLR,,0.00,WeatherDisplay:10.37,2013-04-24 03:22:00,
2013-04-23 22:27:00,56.3,45.9,29.99,NNE,28,12.7,12.7,68,0.00,CLR,,0.00,WeatherDisplay:10.37,2013-04-24 03:27:00,
2013-04-23 22:32:00,56.2,45.8,29.99,NNE,28,15.0,15.0,68,0.00,CLR,,0.00,WeatherDisplay:10.37,2013-04-24 03:32:00,
2013-04-23 22:37:00,56.0,45.6,29.99,NE,35,12.7,12.7,68,0.00,CLR,,0.00,WeatherDisplay:10.37,2013-04-24 03:37:00,
2013-04-23 22:42:00,55.9,45.5,29.99,NNE,12,13.8,13.8,68,0.00,CLR,,0.00,WeatherDisplay:10.37,2013-04-24 03:42:00,
2013-04-23 22:48:00,55.8,45.4,30.00,NE,48,13.8,13.8,68,0.00,CLR,,0.00,WeatherDisplay:10.37,2013-04-24 03:48:00,
2013-04-23 22:54:00,55.8,45.0,30.00,NNE,13,15.0,15.0,67,0.00,CLR,,0.00,WeatherDisplay:10.37,2013-04-24 03:54:00,
2013-04-23 22:59:00,55.7,44.9,30.00,NNE,33,16.1,16.1,67,0.00,CLR,,0.00,WeatherDisplay:10.37,2013-04-24 03:59:00,
2013-04-23 23:01:00,55.6,45.0,30.00,NE,35,6.0,19.0,67,0.00,,,0.00,weatherlink.com 1.10,2013-04-24 04:01:00,
2013-04-23 23:02:00,55.5,44.7,30.00,North,5,10.4,10.4,67,0.00,CLR,,0.00,WeatherDisplay:10.37,2013-04-24 04:02:00,
2013-04-23 23:07:00,55.5,44.7,30.01,North,360,15.0,15.0,67,0.00,CLR,,0.00,WeatherDisplay:10.37,2013-04-24 04:07:00,
2013-04-23 23:12:00,55.3,44.5,30.01,North,11,17.3,17.3,67,0.00,CLR,,0.00,WeatherDisplay:10.37,2013-04-24 04:12:00,
2013-04-23 23:17:00,55.3,44.9,30.01,NE,47,8.0,8.0,68,0.00,CLR,,0.00,WeatherDisplay:10.37,2013-04-24 04:17:00,
2013-04-23 23:22:00,55.2,44.4,30.02,NE,42,11.5,11.7,67,0.00,CLR,,0.00,WeatherDisplay:10.37,2013-04-24 04:22:00,
2013-04-23 23:27:00,55.0,44.2,30.02,NNE,20,15.0,15.0,67,0.00,CLR,,0.00,WeatherDisplay:10.37,2013-04-24 04:27:00,
2013-04-23 23:32:00,54.9,44.1,30.02,NNE,19,13.8,13.8,67,0.00,CLR,,0.00,WeatherDisplay:10.37,2013-04-24 04:32:00,
2013-04-23 23:37:00,54.8,44.0,30.02,NNE,28,16.1,16.1,67,0.00,CLR,,0.00,WeatherDisplay:10.37,2013-04-24 04:37:00,
2013-04-23 23:42:00,54.7,44.0,30.02,North,5,15.0,15.0,67,0.00,CLR,,0.00,WeatherDisplay:10.37,2013-04-24 04:42:00,
2013-04-23 23:47:00,54.7,44.0,30.02,North,5,16.1,16.1,67,0.00,CLR,,0.00,WeatherDisplay:10.37,2013-04-24 04:47:00,
2013-04-23 23:52:00,54.5,43.4,30.02,NNW,338,18.4,18.4,66,0.00,CLR,,0.00,WeatherDisplay:10.37,2013-04-24 04:52:00,
2013-04-23 23:57:00,54.3,43.2,30.03,NW,323,16.1,16.1,66,0.00,CLR,,0.00,WeatherDisplay:10.37,2013-04-24 04:57:00,